Time;durP1;ratioP1;P1;durP2;ratioP2;P2;SDS_P1;SDS_P2;PMS_P1;PMS_P2;Temp;Humidity;BMP_temperature;BMP_pressure;BME280_temperature;BME280_humidity;BME280_pressure;Samples;Min_cycle;Max_cycle;Signal;HPM_P1;HPM_P2
2022/07/31 00:01:23;;;;;;;;;2.75;2.75;;;;;24.71;47.10;101392.31;5097787;27;45719;-84
2022/07/31 00:03:48;;;;;;;;;2.00;1.25;;;;;24.51;47.40;101358.56;5097415;27;45334;-85
2022/07/31 00:06:14;;;;;;;;;1.25;1.25;;;;;24.58;47.31;101376.38;5097412;27;45389;-86
2022/07/31 00:08:39;;;;;;;;;1.25;1.25;;;;;24.60;47.36;101390.69;5078839;27;45276;-84
2022/07/31 00:11:04;;;;;;;;;1.00;1.00;;;;;24.51;46.93;101377.38;5097137;27;45342;-86
2022/07/31 00:13:30;;;;;;;;;1.50;1.00;;;;;24.56;47.27;101389.84;5097162;27;45389;-83
2022/07/31 00:15:55;;;;;;;;;1.00;1.00;;;;;24.51;47.45;101382.75;5097313;27;45394;-83
2022/07/31 00:18:20;;;;;;;;;1.00;1.00;;;;;24.52;47.46;101396.16;5096980;27;45518;-83
2022/07/31 00:20:46;;;;;;;;;1.00;1.00;;;;;24.51;47.45;101396.19;5097019;27;46147;-84
2022/07/31 00:23:11;;;;;;;;;1.00;1.00;;;;;24.53;47.95;101403.34;5097118;27;45302;-84
2022/07/31 00:25:37;;;;;;;;;0.75;0.75;;;;;24.40;47.57;101378.41;5078639;27;45506;-84
2022/07/31 00:28:03;;;;;;;;;1.50;1.50;;;;;24.33;48.09;101365.00;5097125;27;45266;-85
2022/07/31 00:30:28;;;;;;;;;1.00;1.00;;;;;24.52;47.87;101406.91;5097077;27;47589;-85
2022/07/31 00:32:53;;;;;;;;;1.25;1.00;;;;;24.36;48.44;101370.41;5078026;27;45473;-86
2022/07/31 00:35:19;;;;;;;;;0.75;0.50;;;;;24.38;47.70;101374.84;5096592;27;45731;-86
2022/07/31 00:37:44;;;;;;;;;0.50;0.50;;;;;24.32;48.28;101364.13;5097159;27;45339;-86
2022/07/31 00:40:12;;;;;;;;;1.00;1.00;;;;;24.40;48.55;101385.59;5078102;27;47372;-85
2022/07/31 00:42:38;;;;;;;;;0.75;0.75;;;;;24.45;48.66;101402.53;5096934;27;45711;-86
2022/07/31 00:45:04;;;;;;;;;0.50;0.50;;;;;24.27;48.85;101376.72;5096990;27;45379;-84
2022/07/31 00:47:29;;;;;;;;;0.00;0.00;;;;;24.22;48.47;101369.63;5096728;27;45407;-85
2022/07/31 00:49:55;;;;;;;;;1.75;1.00;;;;;24.31;48.70;101382.97;5096041;27;46714;-84
2022/07/31 00:52:20;;;;;;;;;3.00;2.00;;;;;24.25;49.01;101383.03;5077940;27;45510;-85
2022/07/31 00:54:46;;;;;;;;;1.00;1.00;;;;;24.20;49.09;101375.94;5096469;27;45648;-84
2022/07/31 00:57:11;;;;;;;;;1.00;1.00;;;;;24.26;48.75;101390.19;5096673;27;45417;-83
2022/07/31 00:59:36;;;;;;;;;0.75;0.75;;;;;24.19;48.57;101395.66;5096532;27;45542;-86
2022/07/31 01:02:02;;;;;;;;;1.25;1.25;;;;;24.16;48.64;101392.09;5096923;27;45318;-86
2022/07/31 01:04:28;;;;;;;;;1.25;1.25;;;;;23.90;49.66;101366.41;5078172;27;45304;-85
2022/07/31 01:06:54;;;;;;;;;1.00;1.00;;;;;24.00;49.28;101388.69;5096723;27;45398;-86
2022/07/31 01:09:19;;;;;;;;;1.00;1.00;;;;;23.89;49.41;101385.19;5096706;27;46131;-86
2022/07/31 01:12:11;;;;;;;;;1.00;1.00;;;;;23.94;49.58;101405.75;5096398;27;45408;-85
2022/07/31 01:14:44;;;;;;;;;1.50;1.00;;;;;23.77;49.91;101380.84;5096652;27;45341;-86
2022/07/31 01:17:11;;;;;;;;;0.00;0.00;;;;;23.62;50.12;101373.81;5096755;27;45391;-86
2022/07/31 01:19:40;;;;;;;;;1.00;1.00;;;;;23.73;50.46;101410.41;5096156;27;45477;-86
2022/07/31 01:22:24;;;;;;;;;0.50;0.50;;;;;23.66;50.23;101406.91;5096405;27;46578;-86
2022/07/31 01:25:03;;;;;;;;;1.25;1.25;;;;;23.53;50.20;101381.94;5077975;27;45607;-85
2022/07/31 01:27:40;;;;;;;;;0.75;0.75;;;;;23.66;50.34;101406.91;5078303;27;45524;-85
2022/07/31 01:30:06;;;;;;;;;1.25;1.25;;;;;23.49;50.08;101381.97;5096261;27;45428;-86
2022/07/31 01:32:38;;;;;;;;;1.00;1.00;;;;;23.33;50.38;101351.69;5096248;27;45917;-86
2022/07/31 01:35:10;;;;;;;;;1.00;1.00;;;;;23.61;50.68;101412.28;5095799;27;45389;-85
2022/07/31 01:37:42;;;;;;;;;0.00;0.00;;;;;23.30;51.14;101370.47;5077845;27;45561;-86
2022/07/31 01:40:12;;;;;;;;;0.25;0.25;;;;;23.46;50.87;101404.38;5096018;27;45393;-85
2022/07/31 01:42:41;;;;;;;;;0.50;0.50;;;;;23.44;51.47;101411.50;5077852;27;45568;-85
2022/07/31 01:45:11;;;;;;;;;0.50;0.50;;;;;23.33;51.48;101394.63;5096268;27;45433;-86
2022/07/31 01:47:38;;;;;;;;;0.00;0.00;;;;;23.42;51.51;101410.66;5077595;27;45384;-86
2022/07/31 01:50:06;;;;;;;;;1.00;1.00;;;;;23.32;51.55;101398.22;5095567;27;46360;-86
2022/07/31 01:52:33;;;;;;;;;1.25;1.00;;;;;23.29;51.61;101391.06;5095794;27;45992;-86
2022/07/31 01:54:59;;;;;;;;;0.00;0.00;;;;;23.18;51.51;101372.38;5095984;27;45499;-85
2022/07/31 01:57:28;;;;;;;;;1.00;1.00;;;;;23.18;51.96;101379.53;5077405;27;45537;-86
2022/07/31 01:59:57;;;;;;;;;1.00;1.00;;;;;23.35;51.39;101409.81;5095679;27;46486;-86
2022/07/31 02:02:24;;;;;;;;;2.00;2.00;;;;;23.25;51.34;101391.09;5095704;27;45749;-85
2022/07/31 02:04:50;;;;;;;;;1.00;1.00;;;;;23.16;52.28;101386.72;5095498;27;45433;-86
2022/07/31 02:07:18;;;;;;;;;1.00;1.00;;;;;23.13;51.64;101384.03;5095948;27;45464;-86
2022/07/31 02:09:46;;;;;;;;;2.00;2.00;;;;;23.28;51.88;101413.44;5076295;27;48347;-86
2022/07/31 02:12:13;;;;;;;;;2.00;2.00;;;;;23.15;51.94;101393.88;5077476;27;45800;-86
2022/07/31 02:14:41;;;;;;;;;1.00;1.00;;;;;23.14;51.96;101394.75;5095907;27;45427;-85
2022/07/31 02:17:08;;;;;;;;;2.00;2.00;;;;;22.98;52.18;101374.31;5095569;27;45463;-85
2022/07/31 02:19:37;;;;;;;;;2.00;1.50;;;;;23.14;52.50;101405.47;5095159;27;46344;-84
2022/07/31 02:22:03;;;;;;;;;1.00;1.00;;;;;23.09;52.55;101401.94;5076866;27;45801;-86
2022/07/31 02:24:29;;;;;;;;;0.75;0.75;;;;;22.86;52.70;101361.84;5095522;27;45555;-87
2022/07/31 02:26:56;;;;;;;;;1.50;1.50;;;;;22.89;52.65;101377.94;5095768;27;45612;-86
2022/07/31 02:29:23;;;;;;;;;2.00;2.00;;;;;22.96;52.98;101399.34;5095082;27;45421;-84
2022/07/31 02:31:50;;;;;;;;;1.50;1.50;;;;;22.91;53.02;101404.75;5095455;27;45981;-83
2022/07/31 02:34:17;;;;;;;;;1.00;1.00;;;;;22.82;52.86;101396.72;5094864;27;45307;-83
2022/07/31 02:36:44;;;;;;;;;1.50;1.50;;;;;22.78;53.17;101389.59;5095065;27;45290;-85
2022/07/31 02:39:10;;;;;;;;;1.00;1.00;;;;;22.72;53.38;101385.16;5094816;27;45492;-84
2022/07/31 02:41:36;;;;;;;;;2.50;1.75;;;;;22.69;52.91;101379.78;5094839;27;45515;-86
2022/07/31 02:44:02;;;;;;;;;1.50;1.50;;;;;22.67;53.76;101392.31;5095366;27;45560;-84
2022/07/31 02:46:28;;;;;;;;;1.75;1.00;;;;;22.70;53.72;101391.41;5094908;27;45636;-83
2022/07/31 02:48:55;;;;;;;;;2.00;1.00;;;;;22.67;53.20;101390.53;5094513;27;46375;-84
2022/07/31 02:51:22;;;;;;;;;1.75;1.75;;;;;22.63;54.17;101377.16;5076394;27;45911;-83
2022/07/31 02:53:48;;;;;;;;;1.50;1.00;;;;;22.66;53.85;101378.03;5094825;27;45423;-86
2022/07/31 02:56:14;;;;;;;;;1.00;1.00;;;;;22.55;53.71;101353.06;5095060;27;45393;-83
2022/07/31 02:58:41;;;;;;;;;2.00;2.00;;;;;22.65;53.89;101362.84;5076084;27;47299;-84
2022/07/31 03:01:07;;;;;;;;;1.00;1.00;;;;;22.78;54.06;101379.75;5076197;27;45466;-83
2022/07/31 03:03:32;;;;;;;;;1.00;1.00;;;;;22.84;53.96;101397.59;5094723;27;46209;-83
2022/07/31 03:05:58;;;;;;;;;1.00;1.00;;;;;22.85;53.77;101389.53;5094614;27;45723;-84
2022/07/31 03:08:23;;;;;;;;;1.50;1.50;;;;;22.77;53.94;101379.78;5076300;27;47885;-86
2022/07/31 03:10:48;;;;;;;;;1.00;1.00;;;;;22.66;53.91;101371.78;5094524;27;45280;-86
2022/07/31 03:13:15;;;;;;;;;1.75;1.75;;;;;22.70;53.68;101381.56;5076393;27;45402;-86
2022/07/31 03:15:43;;;;;;;;;1.00;1.00;;;;;22.71;53.84;101377.09;5094726;27;45442;-84
2022/07/31 03:18:13;;;;;;;;;1.00;1.00;;;;;22.57;54.23;101361.13;5094008;27;45343;-85
2022/07/31 03:20:41;;;;;;;;;1.75;1.75;;;;;22.77;54.04;101402.09;5093297;27;45427;-85
2022/07/31 03:23:10;;;;;;;;;2.00;2.00;;;;;22.57;53.95;101366.47;5076159;27;45333;-85
2022/07/31 03:25:35;;;;;;;;;0.50;0.50;;;;;22.71;54.38;101391.41;5094843;27;45583;-85
2022/07/31 03:28:01;;;;;;;;;1.25;1.00;;;;;22.69;54.41;101381.59;5094509;27;46592;-86
2022/07/31 03:30:26;;;;;;;;;1.25;1.00;;;;;22.72;54.39;101394.97;5094579;27;45329;-86
2022/07/31 03:32:53;;;;;;;;;1.00;1.00;;;;;22.69;54.50;101398.56;5076168;27;45368;-85
2022/07/31 03:35:18;;;;;;;;;2.00;2.00;;;;;22.66;54.43;101399.47;5094234;27;45519;-85
2022/07/31 03:37:44;;;;;;;;;1.00;1.00;;;;;22.59;54.36;101381.63;5094237;27;45473;-86
2022/07/31 03:40:10;;;;;;;;;1.00;1.00;;;;;22.45;54.84;101355.81;5094193;27;45806;-85
2022/07/31 03:42:36;;;;;;;;;2.00;2.00;;;;;22.55;55.01;101382.53;5094372;27;45477;-86
2022/07/31 03:45:04;;;;;;;;;1.75;1.00;;;;;22.44;55.01;101365.63;5094331;27;45263;-86
2022/07/31 03:47:30;;;;;;;;;0.25;0.25;;;;;22.55;55.20;101395.94;5075517;27;46209;-86
2022/07/31 03:49:56;;;;;;;;;0.25;0.25;;;;;22.28;55.33;101340.69;5075694;27;45578;-85
2022/07/31 03:52:22;;;;;;;;;2.00;1.00;;;;;22.45;55.17;101362.03;5094386;27;45295;-86
2022/07/31 03:54:48;;;;;;;;;1.00;1.00;;;;;22.43;55.63;101355.81;5094508;27;45446;-86
2022/07/31 03:57:15;;;;;;;;;1.75;1.00;;;;;22.45;55.28;101379.91;5094004;27;46608;-86
2022/07/31 03:59:42;;;;;;;;;1.00;1.00;;;;;22.33;55.38;101357.63;5094016;27;45292;-85
2022/07/31 04:02:09;;;;;;;;;1.75;1.25;;;;;22.35;55.58;101377.25;5093884;27;45334;-87
2022/07/31 04:04:36;;;;;;;;;1.00;1.00;;;;;22.12;55.72;101344.34;5093736;27;45599;-85
2022/07/31 04:07:03;;;;;;;;;1.25;1.25;;;;;22.23;55.84;101389.81;5093814;27;46561;-84
2022/07/31 04:09:28;;;;;;;;;1.00;1.00;;;;;22.20;55.89;101379.09;5093855;27;45775;-86
2022/07/31 04:11:54;;;;;;;;;1.00;1.00;;;;;22.08;55.82;101359.47;5094148;27;45752;-87
2022/07/31 04:14:19;;;;;;;;;1.00;1.00;;;;;22.08;55.75;101359.47;5093666;27;45472;-85
2022/07/31 04:16:44;;;;;;;;;1.00;1.00;;;;;22.01;55.80;101360.38;5093645;27;45543;-84
2022/07/31 04:19:10;;;;;;;;;2.00;1.25;;;;;22.08;56.07;101388.94;5093216;27;45552;-82
2022/07/31 04:21:35;;;;;;;;;1.50;1.50;;;;;21.88;56.29;101364.00;5093691;27;45493;-85
2022/07/31 04:24:00;;;;;;;;;1.00;1.00;;;;;21.87;56.20;101365.78;5093955;27;45352;-85
2022/07/31 04:26:27;;;;;;;;;1.25;1.25;;;;;21.87;56.28;101375.56;5075008;27;47158;-84
2022/07/31 04:28:53;;;;;;;;;1.50;1.50;;;;;21.78;56.45;101367.59;5093690;27;45735;-83
2022/07/31 04:31:18;;;;;;;;;1.50;1.50;;;;;21.51;56.50;101331.94;5094098;27;45405;-85
2022/07/31 04:33:44;;;;;;;;;2.00;2.00;;;;;21.62;56.35;101359.59;5096927;27;45674;-83
2022/07/31 04:36:09;;;;;;;;;1.75;1.00;;;;;21.59;56.63;101358.69;5097085;27;45818;-84
2022/07/31 04:38:35;;;;;;;;;1.00;1.00;;;;;21.76;57.05;101391.66;5096888;27;45504;-86
2022/07/31 04:41:00;;;;;;;;;2.50;2.50;;;;;21.62;56.93;101380.06;5096924;27;45693;-83
2022/07/31 04:43:25;;;;;;;;;1.00;1.00;;;;;21.52;56.81;101367.59;5096714;27;45342;-86
2022/07/31 04:45:51;;;;;;;;;1.75;1.75;;;;;21.72;56.94;101394.31;5096505;27;46504;-85
2022/07/31 04:48:16;;;;;;;;;1.75;1.75;;;;;21.58;57.76;101368.50;5096099;27;46224;-85
2022/07/31 04:50:42;;;;;;;;;2.75;2.75;;;;;21.86;56.98;101395.22;5078545;27;45526;-83
2022/07/31 04:53:07;;;;;;;;;3.25;2.75;;;;;21.76;56.84;101377.38;5096624;27;45494;-83
2022/07/31 04:55:32;;;;;;;;;2.00;2.00;;;;;21.57;56.68;101337.25;5078383;27;47079;-84
2022/07/31 04:57:58;;;;;;;;;3.00;3.00;;;;;21.93;56.64;101399.69;5096511;27;45396;-85
2022/07/31 05:00:23;;;;;;;;;3.00;3.00;;;;;21.81;56.92;101378.25;5096278;27;45405;-82
2022/07/31 05:02:49;;;;;;;;;4.00;4.00;;;;;21.67;56.70;101339.94;5096733;27;45325;-84
2022/07/31 05:05:16;;;;;;;;;6.75;5.50;;;;;22.04;57.28;101407.69;5095897;27;46262;-84
2022/07/31 05:07:41;;;;;;;;;5.00;4.25;;;;;21.94;56.44;101376.47;5096670;27;45441;-86
2022/07/31 05:10:07;;;;;;;;;5.00;4.50;;;;;21.84;57.12;101348.84;5096619;27;45277;-84
2022/07/31 05:12:32;;;;;;;;;5.00;5.00;;;;;22.15;56.58;101390.72;5096383;27;45293;-85
2022/07/31 05:14:58;;;;;;;;;4.75;4.75;;;;;21.95;56.73;101348.81;5096161;27;45287;-84
2022/07/31 05:17:23;;;;;;;;;4.25;4.25;;;;;22.13;56.94;101381.81;5096418;27;45377;-85
2022/07/31 05:19:48;;;;;;;;;4.75;4.75;;;;;22.22;56.88;101391.63;5096248;27;45764;-82
2022/07/31 05:22:14;;;;;;;;;3.50;3.50;;;;;22.08;56.85;101361.28;5096219;27;45486;-83
2022/07/31 05:24:39;;;;;;;;;4.50;3.75;;;;;22.17;56.95;101363.97;5095944;27;45436;-83
2022/07/31 05:27:04;;;;;;;;;5.00;4.00;;;;;22.20;56.96;101369.28;5096131;27;45556;-83
2022/07/31 05:29:31;;;;;;;;;4.00;4.00;;;;;22.34;56.48;101394.22;5096128;27;45389;-84
2022/07/31 05:31:57;;;;;;;;;3.00;3.00;;;;;22.32;56.92;101379.97;5096213;27;45417;-86
2022/07/31 05:34:22;;;;;;;;;5.00;5.00;;;;;22.43;56.52;101398.69;5095684;27;46317;-85
2022/07/31 05:36:48;;;;;;;;;4.00;4.00;;;;;22.28;56.08;101366.59;5095943;27;45316;-83
2022/07/31 05:39:13;;;;;;;;;4.50;4.50;;;;;22.30;56.20;101362.09;5078079;27;45348;-83
2022/07/31 05:41:39;;;;;;;;;5.00;4.00;;;;;22.50;56.65;101391.50;5096083;27;45390;-86
2022/07/31 05:44:04;;;;;;;;;4.75;3.50;;;;;22.37;56.40;101367.44;5094448;27;46369;-84
2022/07/31 05:46:29;;;;;;;;;3.00;3.00;;;;;22.42;56.64;101375.47;5095750;27;45288;-85
2022/07/31 05:48:55;;;;;;;;;3.75;3.75;;;;;22.54;56.75;101396.84;5095715;27;45429;-85
2022/07/31 05:51:21;;;;;;;;;3.00;3.00;;;;;22.47;56.75;101378.13;5077665;27;45336;-86
2022/07/31 05:53:47;;;;;;;;;4.50;4.50;;;;;22.49;56.54;101377.22;5095954;27;45463;-86
2022/07/31 05:56:12;;;;;;;;;4.00;3.75;;;;;22.47;56.16;101368.31;5095799;27;45363;-85
2022/07/31 05:58:37;;;;;;;;;4.75;4.75;;;;;22.50;56.25;101376.31;5095787;27;45481;-85
2022/07/31 06:01:03;;;;;;;;;3.25;3.25;;;;;22.48;56.73;101370.06;5095839;27;45317;-85
2022/07/31 06:03:28;;;;;;;;;4.75;4.50;;;;;22.49;56.99;101365.59;5095019;27;45488;-85
2022/07/31 06:05:55;;;;;;;;;5.00;5.00;;;;;22.83;56.27;101410.09;5095634;27;45441;-85
2022/07/31 06:08:20;;;;;;;;;3.75;3.75;;;;;22.67;56.16;101370.88;5095527;27;45464;-86
2022/07/31 06:10:45;;;;;;;;;4.50;4.50;;;;;22.81;56.26;101381.53;5095784;27;45467;-86
2022/07/31 06:13:12;;;;;;;;;3.00;3.00;;;;;22.86;56.30;101377.94;5095326;27;45347;-85
2022/07/31 06:15:37;;;;;;;;;3.00;3.00;;;;;22.94;55.62;101383.25;5095152;27;45378;-86
2022/07/31 06:18:03;;;;;;;;;2.00;2.00;;;;;23.00;56.27;101391.25;5095396;27;45422;-86
2022/07/31 06:20:28;;;;;;;;;4.00;3.50;;;;;23.02;56.01;101389.47;5095227;27;45350;-85
2022/07/31 06:22:57;;;;;;;;;3.50;3.25;;;;;22.75;55.54;101342.22;5095355;27;45713;-85
2022/07/31 06:25:22;;;;;;;;;2.75;2.50;;;;;22.87;56.08;101366.31;5095296;27;45847;-86
2022/07/31 06:27:47;;;;;;;;;3.75;3.50;;;;;22.98;55.50;101387.72;5095314;27;45411;-86
2022/07/31 06:30:14;;;;;;;;;3.75;3.75;;;;;23.02;55.50;101391.28;5077186;27;45536;-84
2022/07/31 06:32:39;;;;;;;;;4.00;4.00;;;;;23.15;55.66;101420.69;5094980;27;45509;-83
2022/07/31 06:35:06;;;;;;;;;3.25;3.25;;;;;23.12;54.69;101407.28;5076397;27;45462;-83
2022/07/31 06:37:31;;;;;;;;;4.25;4.25;;;;;23.01;55.42;101401.09;5095159;27;45364;-85
2022/07/31 06:39:56;;;;;;;;;4.00;4.00;;;;;22.98;54.97;101405.59;5095277;27;45421;-86
2022/07/31 06:42:23;;;;;;;;;4.50;4.00;;;;;22.96;55.50;101412.75;5076651;27;46534;-86
2022/07/31 06:44:48;;;;;;;;;5.75;5.00;;;;;22.92;55.75;101409.19;5076479;27;45453;-85
2022/07/31 06:47:15;;;;;;;;;6.00;5.00;;;;;22.91;55.04;101397.59;5076282;27;45462;-85
2022/07/31 06:49:41;;;;;;;;;4.75;4.00;;;;;22.89;55.10;101385.09;5094839;27;45524;-85
2022/07/31 06:52:06;;;;;;;;;4.75;4.25;;;;;22.83;55.25;101385.97;5094882;27;47239;-85
2022/07/31 06:54:32;;;;;;;;;4.50;4.25;;;;;22.90;54.98;101387.75;5076988;27;45441;-86
2022/07/31 06:56:57;;;;;;;;;5.50;5.50;;;;;23.00;55.35;101407.34;5095173;27;45412;-84
2022/07/31 06:59:22;;;;;;;;;4.00;4.00;;;;;22.72;55.25;101354.78;5095600;27;45700;-85
2022/07/31 07:01:48;;;;;;;;;7.75;5.75;;;;;22.97;55.58;101391.28;5095000;27;46509;-85
2022/07/31 07:04:13;;;;;;;;;3.50;3.50;;;;;22.81;55.47;101360.97;5076068;27;45972;-84
2022/07/31 07:06:38;;;;;;;;;4.00;4.00;;;;;23.06;55.57;101403.75;5094697;27;45281;-85
2022/07/31 07:09:04;;;;;;;;;6.00;5.00;;;;;23.15;55.30;101412.63;5094429;27;45551;-84
2022/07/31 07:11:29;;;;;;;;;5.00;5.00;;;;;23.23;55.29;101414.38;5094447;27;45405;-86
2022/07/31 07:13:55;;;;;;;;;4.00;4.00;;;;;23.16;55.13;101403.69;5094647;27;45395;-85
2022/07/31 07:16:20;;;;;;;;;5.00;4.75;;;;;23.06;54.71;101375.16;5094609;27;45374;-86
2022/07/31 07:18:45;;;;;;;;;4.00;3.50;;;;;23.40;54.90;101425.88;5094271;27;45524;-85
2022/07/31 07:21:11;;;;;;;;;5.50;5.25;;;;;23.30;54.65;101406.28;5094499;27;45922;-85
2022/07/31 07:23:37;;;;;;;;;5.25;5.25;;;;;23.38;54.22;101433.91;5094771;27;45551;-84
2022/07/31 07:26:03;;;;;;;;;5.25;4.75;;;;;23.30;54.21;101418.78;5094715;27;45450;-86
2022/07/31 07:28:28;;;;;;;;;5.00;5.00;;;;;23.11;54.79;101392.09;5076050;27;45354;-85
2022/07/31 07:30:54;;;;;;;;;6.75;5.00;;;;;23.00;53.77;101393.94;5076027;27;47882;-85
2022/07/31 07:33:19;;;;;;;;;6.00;6.00;;;;;22.98;54.33;101403.78;5094024;27;45490;-85
2022/07/31 07:35:44;;;;;;;;;4.25;4.25;;;;;22.97;54.10;101411.84;5094714;27;46216;-86
2022/07/31 07:38:10;;;;;;;;;6.00;5.50;;;;;22.95;54.94;101411.84;5075962;27;45652;-86
2022/07/31 07:40:35;;;;;;;;;5.50;5.25;;;;;23.09;54.27;101426.06;5093920;27;45453;-83
2022/07/31 07:43:00;;;;;;;;;5.00;5.00;;;;;23.08;54.19;101412.69;5094473;27;45491;-85
2022/07/31 07:45:26;;;;;;;;;6.25;5.00;;;;;23.05;53.88;101420.72;5094184;27;45744;-85
2022/07/31 07:47:51;;;;;;;;;6.25;5.25;;;;;23.07;54.56;101441.28;5075295;27;45441;-85
2022/07/31 07:50:17;;;;;;;;;5.25;5.25;;;;;23.06;54.67;101423.41;5075642;27;47994;-85
2022/07/31 07:52:42;;;;;;;;;6.00;5.50;;;;;23.02;53.92;101426.13;5093841;27;45382;-83
2022/07/31 07:55:08;;;;;;;;;6.00;6.00;;;;;22.93;54.24;101408.28;5094226;27;45343;-83
2022/07/31 07:57:35;;;;;;;;;7.25;7.00;;;;;22.87;54.26;101410.97;5075607;27;44868;-84
2022/07/31 08:00:11;;;;;;;;;9.00;7.75;;;;;22.96;54.25;101412.75;5094215;27;45598;-85
2022/07/31 08:02:37;;;;;;;;;7.50;7.00;;;;;23.01;53.91;101422.56;5093747;27;45523;-84
2022/07/31 08:05:03;;;;;;;;;5.75;5.75;;;;;23.04;54.03;101405.53;5093890;27;45415;-85
2022/07/31 08:07:30;;;;;;;;;6.50;5.75;;;;;23.10;54.48;101408.19;5095841;27;45400;-83
2022/07/31 08:09:57;;;;;;;;;7.00;6.50;;;;;23.24;54.41;101422.38;5078942;27;47357;-85
2022/07/31 08:12:22;;;;;;;;;7.00;6.00;;;;;23.18;53.73;101395.63;5078785;27;46415;-86
2022/07/31 08:14:48;;;;;;;;;5.50;5.00;;;;;23.11;53.70;101404.63;5097498;27;45303;-85
2022/07/31 08:17:14;;;;;;;;;6.50;6.25;;;;;23.05;53.68;101384.06;5079490;27;45464;-84
2022/07/31 08:19:40;;;;;;;;;7.00;5.50;;;;;23.28;53.93;101420.59;5097011;27;45580;-85
2022/07/31 08:22:06;;;;;;;;;7.00;7.00;;;;;23.18;53.67;101400.97;5097411;27;45333;-85
2022/07/31 08:24:32;;;;;;;;;5.75;5.25;;;;;23.29;53.61;101415.19;5097392;27;45366;-86
2022/07/31 08:29:41;;;;;;;;;7.25;5.00;;;;;23.33;53.43;101406.25;5097118;27;45299;-85
2022/07/31 08:32:06;;;;;;;;;5.50;4.75;;;;;23.52;53.70;101408.78;5078476;27;45773;-87
2022/07/31 08:34:32;;;;;;;;;6.00;6.00;;;;;23.46;53.62;101401.69;5078696;27;45562;-85
2022/07/31 08:36:58;;;;;;;;;5.25;4.75;;;;;23.44;53.41;101388.25;5097101;27;45469;-86
2022/07/31 08:39:23;;;;;;;;;5.50;5.50;;;;;23.54;53.79;101374.75;5078369;27;47232;-85
2022/07/31 08:41:49;;;;;;;;;6.00;6.00;;;;;23.73;53.38;101407.75;5097062;27;45299;-85
2022/07/31 08:44:14;;;;;;;;;7.00;7.00;;;;;23.51;53.14;101378.38;5096956;27;45296;-84
2022/07/31 08:46:40;;;;;;;;;6.00;6.00;;;;;23.73;53.42;101415.78;5096782;27;45456;-85
2022/07/31 08:49:08;;;;;;;;;7.00;7.00;;;;;23.85;53.23;101415.69;5096521;27;45384;-85
2022/07/31 08:51:37;;;;;;;;;7.50;7.00;;;;;23.66;53.07;101399.75;5077764;27;45784;-85
2022/07/31 08:54:09;;;;;;;;;7.50;6.50;;;;;23.70;53.55;101397.06;5097030;27;45430;-85
2022/07/31 08:56:35;;;;;;;;;7.25;7.00;;;;;23.80;53.20;101412.16;5078486;27;45441;-84
2022/07/31 08:59:02;;;;;;;;;13.25;13.00;;;;;23.77;52.92;101417.56;5096691;27;45506;-85
2022/07/31 09:01:28;;;;;;;;;5.50;5.50;;;;;23.63;53.52;101396.16;5096852;27;45477;-85
2022/07/31 09:03:53;;;;;;;;;6.50;6.50;;;;;23.72;53.18;101412.22;5096734;27;45482;-84
2022/07/31 09:06:19;;;;;;;;;8.00;8.00;;;;;23.52;53.31;101382.84;5077792;27;45573;-85
2022/07/31 09:08:45;;;;;;;;;7.25;7.25;;;;;23.48;53.11;101375.72;5096052;27;46188;-85
2022/07/31 09:11:13;;;;;;;;;6.25;6.25;;;;;23.43;53.30;101362.34;5096475;27;45442;-86
2022/07/31 09:13:50;;;;;;;;;8.25;6.25;;;;;23.77;52.85;101409.50;5096711;27;45472;-85
2022/07/31 09:16:16;;;;;;;;;6.25;6.25;;;;;23.79;52.64;101415.72;5096772;27;45634;-85
2022/07/31 09:18:41;;;;;;;;;8.00;7.25;;;;;23.71;53.15;101406.88;5077858;27;47942;-86
2022/07/31 09:21:07;;;;;;;;;8.75;8.25;;;;;23.63;52.82;101389.03;5095868;27;45446;-84
2022/07/31 09:23:42;;;;;;;;;7.25;7.25;;;;;23.78;52.69;101408.59;5096337;27;45523;-83
2022/07/31 09:26:07;;;;;;;;;6.00;6.00;;;;;23.86;52.76;101412.09;5096343;27;45422;-85
2022/07/31 09:28:36;;;;;;;;;6.50;6.50;;;;;23.83;52.84;101391.53;5095994;27;45320;-85
2022/07/31 09:31:03;;;;;;;;;7.00;7.00;;;;;24.04;52.63;101417.28;5096191;27;45884;-85
2022/07/31 09:33:30;;;;;;;;;7.00;7.00;;;;;23.90;52.51;101373.59;5096003;27;45547;-84
2022/07/31 09:35:57;;;;;;;;;8.25;8.00;;;;;24.06;52.41;101393.97;5095728;27;45395;-84
2022/07/31 09:38:31;;;;;;;;;8.25;7.25;;;;;24.16;52.29;101417.16;5077468;27;48370;-83
2022/07/31 09:40:57;;;;;;;;;7.50;7.50;;;;;24.11;52.09;101400.19;5077499;27;45948;-84
2022/07/31 09:43:27;;;;;;;;;8.00;7.00;;;;;24.20;52.15;101423.38;5096000;27;45441;-85
2022/07/31 09:45:59;;;;;;;;;6.00;6.00;;;;;24.13;51.74;101406.44;5077541;27;45279;-86
2022/07/31 09:48:25;;;;;;;;;7.25;7.25;;;;;24.14;51.81;101412.72;5095390;27;46057;-83
2022/07/31 09:50:55;;;;;;;;;9.00;8.00;;;;;24.21;51.45;101406.34;5076647;27;45429;-85
2022/07/31 09:53:21;;;;;;;;;7.00;7.00;;;;;24.19;51.70;101402.81;5077280;27;45587;-85
2022/07/31 09:55:51;;;;;;;;;8.00;8.00;;;;;24.30;52.06;101416.13;5095505;27;45484;-84
2022/07/31 09:58:17;;;;;;;;;7.50;7.50;;;;;24.23;51.45;101396.47;5077108;27;47633;-84
2022/07/31 10:00:43;;;;;;;;;7.50;7.00;;;;;24.10;51.91;101351.88;5095787;27;45662;-83
2022/07/31 10:03:12;;;;;;;;;10.00;9.25;;;;;24.41;51.40;101403.47;5077385;27;45497;-85
2022/07/31 10:05:40;;;;;;;;;8.00;8.00;;;;;24.36;51.01;101378.47;5095297;27;45479;-85
2022/07/31 10:08:06;;;;;;;;;9.25;7.00;;;;;24.51;50.61;101393.50;5095269;27;46651;-85
2022/07/31 10:10:32;;;;;;;;;8.00;8.00;;;;;24.51;51.04;101393.50;5076721;27;45715;-85
2022/07/31 10:13:02;;;;;;;;;8.00;8.00;;;;;24.52;50.91;101387.22;5095369;27;45370;-83
2022/07/31 10:15:28;;;;;;;;;7.25;7.25;;;;;24.45;51.42;101364.91;5095304;27;45396;-86
2022/07/31 10:17:57;;;;;;;;;7.75;7.50;;;;;24.55;50.95;101380.00;5095413;27;45485;-84
2022/07/31 10:20:23;;;;;;;;;9.00;9.00;;;;;24.75;50.99;101394.97;5094877;27;45502;-85
2022/07/31 10:22:55;;;;;;;;;7.25;7.25;;;;;24.81;51.15;101390.41;5095269;27;45424;-85
2022/07/31 10:25:24;;;;;;;;;7.75;7.50;;;;;24.83;50.73;101387.72;5095122;27;45351;-84
2022/07/31 10:27:52;;;;;;;;;6.25;6.25;;;;;24.73;50.44;101372.59;5095604;27;45543;-83
2022/07/31 10:30:18;;;;;;;;;8.50;8.50;;;;;24.80;50.91;101390.44;5075826;27;45751;-85
2022/07/31 10:32:44;;;;;;;;;6.50;6.50;;;;;24.80;50.85;101369.81;5095012;27;45425;-84
2022/07/31 10:35:10;;;;;;;;;8.75;7.50;;;;;24.92;50.40;101372.31;5076201;27;45343;-83
2022/07/31 10:38:14;;;;;;;;;11.00;10.75;;;;;25.04;50.16;101370.38;5095074;27;46594;-85
2022/07/31 10:41:11;;;;;;;;;10.25;9.25;;;;;25.12;50.32;101374.75;5076684;27;45960;-85
2022/07/31 10:43:47;;;;;;;;;9.50;7.75;;;;;25.31;50.08;101382.53;5094808;27;45287;-84
2022/07/31 10:46:12;;;;;;;;;9.75;8.00;;;;;25.30;49.61;101367.28;5095072;27;45244;-84
2022/07/31 10:48:49;;;;;;;;;6.25;6.25;;;;;25.38;49.95;101362.69;5094797;27;45448;-84
2022/07/31 10:51:15;;;;;;;;;4.25;4.25;;;;;25.41;49.89;101349.16;5076219;27;45674;-85
2022/07/31 10:54:01;;;;;;;;;7.00;7.00;;;;;25.61;49.60;101376.63;5076205;27;45633;-85
2022/07/31 10:56:27;;;;;;;;;9.25;8.50;;;;;25.46;49.77;101326.63;5094816;27;45544;-84
2022/07/31 10:58:56;;;;;;;;;8.50;7.25;;;;;25.60;49.08;101339.84;5094784;27;45867;-85
2022/07/31 11:01:24;;;;;;;;;8.00;7.00;;;;;25.69;49.35;101342.38;5094815;27;45338;-85
2022/07/31 11:03:57;;;;;;;;;8.50;8.50;;;;;25.84;49.05;101368.16;5094821;27;45484;-84
2022/07/31 11:06:25;;;;;;;;;6.50;6.50;;;;;25.75;49.03;101349.47;5075868;27;45292;-84
2022/07/31 11:08:53;;;;;;;;;7.25;7.00;;;;;25.80;48.67;101346.72;5075926;27;48118;-85
2022/07/31 11:11:31;;;;;;;;;8.50;8.50;;;;;25.86;48.36;101342.13;5094528;27;45975;-85
2022/07/31 11:13:59;;;;;;;;;8.75;8.75;;;;;25.96;48.92;101349.09;5094673;27;45584;-85
2022/07/31 11:16:25;;;;;;;;;5.75;5.50;;;;;26.00;48.52;101339.13;5075959;27;45387;-86
2022/07/31 11:19:02;;;;;;;;;8.00;8.00;;;;;26.12;48.40;101357.75;5094221;27;45465;-85
2022/07/31 11:21:39;;;;;;;;;8.25;7.00;;;;;26.21;47.74;101354.88;5094178;27;45464;-85
2022/07/31 11:24:18;;;;;;;;;8.00;7.25;;;;;26.28;47.50;101368.22;5076126;27;45334;-85
2022/07/31 11:26:56;;;;;;;;;6.00;5.75;;;;;26.13;47.88;101334.41;5094594;27;45340;-84